createdAt,value
2019-04-27T00:00:32.872Z,82.37
2019-04-27T00:01:33.521Z,82.78
2019-04-27T00:02:33.341Z,82.89
2019-04-27T00:03:35.049Z,82.48
2019-04-27T00:04:32.941Z,82.57
2019-04-27T00:05:35.337Z,82.89
2019-04-27T00:06:31.623Z,82.89
2019-04-27T00:07:31.612Z,83.09
2019-04-27T00:08:35.649Z,83.19
2019-04-27T00:09:34.075Z,82.98
2019-04-27T00:10:33.413Z,82.89
2019-04-27T00:11:33.088Z,82.89
2019-04-27T00:12:33.126Z,83.09
2019-04-27T00:13:34.778Z,82.98
2019-04-27T00:14:32.920Z,82.98
2019-04-27T00:15:34.347Z,82.98
2019-04-27T00:16:31.522Z,83.39
2019-04-27T00:17:44.967Z,83.29
2019-04-27T00:18:33.850Z,83.39
2019-04-27T00:19:33.331Z,83.50
2019-04-27T00:20:33.155Z,83.60
2019-04-27T00:21:32.816Z,83.70
2019-04-27T00:22:33.326Z,84.11
2019-04-27T00:23:31.447Z,84.01
2019-04-27T00:24:31.436Z,83.91
2019-04-27T00:25:32.808Z,84.11
2019-04-27T00:26:31.416Z,84.22
2019-04-27T00:27:31.404Z,84.22
2019-04-27T00:28:33.088Z,84.01
2019-04-27T00:29:33.078Z,84.31
2019-04-27T00:30:31.468Z,84.42
2019-04-27T00:31:31.364Z,84.42
2019-04-27T00:32:33.111Z,84.63
2019-04-27T00:33:31.342Z,84.72
2019-04-27T00:34:31.331Z,84.42
2019-04-27T00:35:31.533Z,84.42
2019-04-27T00:36:32.942Z,84.42
2019-04-27T00:37:31.301Z,84.52
2019-04-27T00:38:31.291Z,84.31
2019-04-27T00:39:32.947Z,84.31
2019-04-27T00:40:31.306Z,84.52
2019-04-27T00:41:31.260Z,84.22
2019-04-27T00:42:31.250Z,84.42
2019-04-27T00:43:32.754Z,84.42
2019-04-27T00:44:31.228Z,84.52
2019-04-27T00:45:31.247Z,84.63
2019-04-27T00:46:32.981Z,84.83
2019-04-27T00:47:32.707Z,84.52
2019-04-27T00:48:31.187Z,84.63
2019-04-27T00:49:32.837Z,84.63
2019-04-27T00:50:31.191Z,84.72
2019-04-27T00:51:31.154Z,84.63
2019-04-27T00:52:32.604Z,84.63
2019-04-27T00:53:31.134Z,84.63
2019-04-27T00:54:31.130Z,84.72
2019-04-27T00:55:31.172Z,84.83
2019-04-27T00:56:31.883Z,84.72
2019-04-27T00:57:31.092Z,84.72
2019-04-27T00:58:31.083Z,84.83
2019-04-27T00:59:32.852Z,84.83
2019-04-27T01:00:31.060Z,84.63
2019-04-27T01:01:31.092Z,84.93
2019-04-27T01:02:31.041Z,84.93
2019-04-27T01:03:31.032Z,84.83
2019-04-27T01:04:31.021Z,85.24
2019-04-27T01:05:31.045Z,85.34
2019-04-27T01:06:31.029Z,85.14
2019-04-27T01:07:30.987Z,85.03
2019-04-27T01:08:30.978Z,84.83
2019-04-27T01:09:30.974Z,84.93
2019-04-27T01:10:30.964Z,84.83
2019-04-27T01:11:30.977Z,84.79
2019-04-27T01:12:30.942Z,84.79
2019-04-27T01:13:30.926Z,84.89
2019-04-27T01:14:31.016Z,84.83
2019-04-27T01:15:30.906Z,84.83
2019-04-27T01:16:31.864Z,84.93
2019-04-27T01:17:30.891Z,85.03
2019-04-27T01:18:30.875Z,85.03
2019-04-27T01:19:30.864Z,85.14
2019-04-27T01:20:30.862Z,85.14
2019-04-27T01:21:30.872Z,84.93
2019-04-27T01:22:30.832Z,85.03
2019-04-27T01:23:30.832Z,85.14
2019-04-27T01:24:30.855Z,85.03
2019-04-27T01:25:30.800Z,85.03
2019-04-27T01:26:30.821Z,85.03
2019-04-27T01:27:31.361Z,84.83
2019-04-27T01:28:30.791Z,84.93
2019-04-27T01:29:30.759Z,85.14
2019-04-27T01:30:30.759Z,85.14
2019-04-27T01:31:30.767Z,85.14
2019-04-27T01:32:33.850Z,85.34
2019-04-27T01:33:30.773Z,85.14
2019-04-27T01:34:30.707Z,85.14
2019-04-27T01:35:30.699Z,85.03
2019-04-27T01:36:30.719Z,85.24
2019-04-27T01:37:30.693Z,85.03
2019-04-27T01:38:30.682Z,85.14
2019-04-27T01:39:31.563Z,85.24
2019-04-27T01:40:30.653Z,85.03
2019-04-27T01:41:30.663Z,85.34
2019-04-27T01:42:30.623Z,85.24
2019-04-27T01:43:30.658Z,85.34
2019-04-27T01:44:30.639Z,85.24
2019-04-27T01:45:31.452Z,85.34
2019-04-27T01:46:30.609Z,85.24
2019-04-27T01:47:30.570Z,85.34
2019-04-27T01:48:30.714Z,85.24
2019-04-27T01:49:30.558Z,85.44
2019-04-27T01:50:30.539Z,85.14
2019-04-27T01:51:30.593Z,85.64
2019-04-27T01:52:30.891Z,85.55
2019-04-27T01:53:30.591Z,85.64
2019-04-27T01:54:30.496Z,85.55
2019-04-27T01:55:30.498Z,85.64
2019-04-27T01:56:30.505Z,85.85
2019-04-27T01:57:30.494Z,85.64
2019-04-27T01:58:30.464Z,85.64
2019-04-27T01:59:30.444Z,85.75
2019-04-27T02:00:30.434Z,85.75
2019-04-27T02:01:30.453Z,85.85
2019-04-27T02:02:30.423Z,85.85
2019-04-27T02:03:33.272Z,85.96
2019-04-27T02:04:30.421Z,85.85
2019-04-27T02:05:30.389Z,86.30
2019-04-27T02:06:30.377Z,86.40
2019-04-27T02:07:30.390Z,86.51
2019-04-27T02:08:30.350Z,86.51
2019-04-27T02:09:30.349Z,86.51
2019-04-27T02:10:30.337Z,86.61
2019-04-27T02:11:30.326Z,86.61
2019-04-27T02:12:31.488Z,86.36
2019-04-27T02:13:30.298Z,86.36
2019-04-27T02:14:30.319Z,86.26
2019-04-27T02:15:30.287Z,86.16
2019-04-27T02:16:30.674Z,85.96
2019-04-27T02:17:30.286Z,85.96
2019-04-27T02:18:37.612Z,85.85
2019-04-27T02:19:31.244Z,85.85
2019-04-27T02:20:30.257Z,85.85
2019-04-27T02:21:30.225Z,85.96
2019-04-27T02:22:30.237Z,85.85
2019-04-27T02:23:30.203Z,85.64
2019-04-27T02:24:31.153Z,85.55
2019-04-27T02:25:30.181Z,85.64
2019-04-27T02:26:30.173Z,85.75
2019-04-27T02:27:30.181Z,85.75
2019-04-27T02:28:30.147Z,85.85
2019-04-27T02:29:30.156Z,85.75
2019-04-27T02:30:30.682Z,85.55
2019-04-27T02:31:30.120Z,85.75
2019-04-27T02:32:31.088Z,85.64
2019-04-27T02:33:30.349Z,85.85
2019-04-27T02:34:32.148Z,85.85
2019-04-27T02:35:30.157Z,85.96
2019-04-27T02:36:30.601Z,85.75
2019-04-27T02:37:30.600Z,85.55
2019-04-27T02:38:30.827Z,85.64
2019-04-27T02:39:30.054Z,85.64
2019-04-27T02:40:30.542Z,85.85
2019-04-27T02:41:30.050Z,85.75
2019-04-27T02:42:30.032Z,85.75
2019-04-27T02:43:30.063Z,85.55
2019-04-27T02:44:30.255Z,85.75
2019-04-27T02:45:30.405Z,85.85
2019-04-27T02:46:31.463Z,85.75
2019-04-27T02:47:30.023Z,85.96
2019-04-27T02:48:30.028Z,85.96
2019-04-27T02:49:30.509Z,85.75
2019-04-27T02:50:29.932Z,85.75
2019-04-27T02:51:30.120Z,85.75
2019-04-27T02:52:31.523Z,85.55
2019-04-27T02:53:29.889Z,85.64
2019-04-27T02:54:30.041Z,85.64
2019-04-27T02:55:30.617Z,85.75
2019-04-27T02:56:30.894Z,85.55
2019-04-27T02:57:30.382Z,85.44
2019-04-27T02:58:31.672Z,85.34
2019-04-27T02:59:30.462Z,85.34
2019-04-27T03:00:31.909Z,85.34
2019-04-27T03:01:30.728Z,85.44
2019-04-27T03:02:30.280Z,85.24
2019-04-27T03:03:30.171Z,85.44
2019-04-27T03:04:30.377Z,85.55
2019-04-27T03:05:29.963Z,85.44
2019-04-27T03:06:30.125Z,85.44
2019-04-27T03:07:30.341Z,85.24
2019-04-27T03:08:29.763Z,85.44
2019-04-27T03:09:30.560Z,85.34
2019-04-27T03:10:29.855Z,85.24
2019-04-27T03:11:30.676Z,85.34
2019-04-27T03:12:29.720Z,85.20
2019-04-27T03:13:30.439Z,85.20
2019-04-27T03:14:36.243Z,85.20
2019-04-27T03:15:30.730Z,84.99
2019-04-27T03:16:29.806Z,85.10
2019-04-27T03:17:31.124Z,84.99
2019-04-27T03:18:32.802Z,84.99
2019-04-27T03:19:29.981Z,85.30
2019-04-27T03:20:30.207Z,85.20
2019-04-27T03:21:29.823Z,85.20
2019-04-27T03:22:29.789Z,85.10
2019-04-27T03:23:30.393Z,85.20
2019-04-27T03:24:29.645Z,85.30
2019-04-27T03:25:32.597Z,84.99
2019-04-27T03:26:31.066Z,84.89
2019-04-27T03:27:30.341Z,84.89
2019-04-27T03:28:29.942Z,84.69
2019-04-27T03:29:30.598Z,84.69
2019-04-27T03:30:31.799Z,84.79
2019-04-27T03:31:32.769Z,84.89
2019-04-27T03:32:31.214Z,84.69
2019-04-27T03:33:32.356Z,84.99
2019-04-27T03:34:32.096Z,84.89
2019-04-27T03:35:35.354Z,84.89
2019-04-27T03:36:31.599Z,84.89
2019-04-27T03:37:30.307Z,84.99
2019-04-27T03:38:30.274Z,85.10
2019-04-27T03:39:30.373Z,85.14
2019-04-27T03:40:30.767Z,85.34
2019-04-27T03:41:29.385Z,85.24
2019-04-27T03:42:29.418Z,85.34
2019-04-27T03:43:30.265Z,85.34
2019-04-27T03:44:32.053Z,85.44
2019-04-27T03:45:30.057Z,85.44
2019-04-27T03:46:30.286Z,85.44
2019-04-27T03:47:30.571Z,85.44
2019-04-27T03:48:29.647Z,85.34
2019-04-27T03:49:37.511Z,85.34
2019-04-27T03:50:30.420Z,85.44
2019-04-27T03:51:29.959Z,85.24
2019-04-27T03:52:30.008Z,85.34
2019-04-27T03:53:29.785Z,85.44
2019-04-27T03:54:29.801Z,85.34
2019-04-27T03:55:30.523Z,85.10
2019-04-27T03:56:30.401Z,85.10
2019-04-27T03:57:29.715Z,85.14
2019-04-27T03:58:30.472Z,85.10
2019-04-27T03:59:29.465Z,84.99
2019-04-27T04:00:29.969Z,84.89
2019-04-27T04:01:30.201Z,84.89
2019-04-27T04:02:30.417Z,84.99
2019-04-27T04:03:29.798Z,84.99
2019-04-27T04:04:29.679Z,84.89
2019-04-27T04:05:30.069Z,85.03
2019-04-27T04:06:29.700Z,85.14
2019-04-27T04:07:30.045Z,85.24
2019-04-27T04:08:30.748Z,85.24
2019-04-27T04:09:29.661Z,84.99
2019-04-27T04:10:29.768Z,85.10
2019-04-27T04:11:30.380Z,85.14
2019-04-27T04:12:30.300Z,85.24
2019-04-27T04:13:29.670Z,85.24
2019-04-27T04:14:30.214Z,85.14
2019-04-27T04:15:29.816Z,85.14
2019-04-27T04:16:29.703Z,85.03
2019-04-27T04:17:30.753Z,85.10
2019-04-27T04:18:29.356Z,84.89
2019-04-27T04:19:31.563Z,84.89
2019-04-27T04:20:30.521Z,84.69
2019-04-27T04:21:29.885Z,84.48
2019-04-27T04:22:30.211Z,84.48
2019-04-27T04:23:30.062Z,84.38
2019-04-27T04:24:31.678Z,84.38
2019-04-27T04:25:32.867Z,84.48
2019-04-27T04:26:32.772Z,84.38
2019-04-27T04:27:29.885Z,84.69
2019-04-27T04:28:29.636Z,84.69
2019-04-27T04:29:30.671Z,84.93
2019-04-27T04:30:30.248Z,84.89
2019-04-27T04:31:32.658Z,84.79
2019-04-27T04:32:29.780Z,84.69
2019-04-27T04:33:30.354Z,84.69
2019-04-27T04:34:29.985Z,84.69
2019-04-27T04:35:32.579Z,84.69
2019-04-27T04:36:30.122Z,84.69
2019-04-27T04:37:29.783Z,84.69
2019-04-27T04:38:30.473Z,84.69
2019-04-27T04:39:29.667Z,84.69
2019-04-27T04:40:30.713Z,84.58
2019-04-27T04:41:30.354Z,84.58
2019-04-27T04:42:30.080Z,84.58
2019-04-27T04:43:29.417Z,84.58
2019-04-27T04:44:30.250Z,84.38
2019-04-27T04:45:30.523Z,84.48
2019-04-27T04:46:29.874Z,84.38
2019-04-27T04:47:30.594Z,84.28
2019-04-27T04:48:30.196Z,84.17
2019-04-27T04:49:29.648Z,84.14
2019-04-27T04:50:30.387Z,84.03
2019-04-27T04:51:30.324Z,84.14
2019-04-27T04:52:29.442Z,84.14
2019-04-27T04:53:29.298Z,84.14
2019-04-27T04:54:29.958Z,84.24
2019-04-27T04:55:30.670Z,84.14
2019-04-27T04:56:29.177Z,84.14
2019-04-27T04:57:29.923Z,84.24
2019-04-27T04:58:29.462Z,84.14
2019-04-27T04:59:29.211Z,84.14
2019-04-27T05:00:29.976Z,84.03
2019-04-27T05:01:29.877Z,84.03
2019-04-27T05:02:30.247Z,83.83
2019-04-27T05:03:28.735Z,83.83
2019-04-27T05:04:29.204Z,83.73
2019-04-27T05:05:29.298Z,83.62
2019-04-27T05:06:29.269Z,83.48
2019-04-27T05:07:29.715Z,83.73
2019-04-27T05:08:29.248Z,83.62
2019-04-27T05:09:29.609Z,83.73
2019-04-27T05:10:28.820Z,83.73
2019-04-27T05:11:29.736Z,83.48
2019-04-27T05:12:28.821Z,83.28
2019-04-27T05:13:29.314Z,83.62
2019-04-27T05:14:28.867Z,83.42
2019-04-27T05:15:29.362Z,83.52
2019-04-27T05:16:28.610Z,83.73
2019-04-27T05:17:29.667Z,83.59
2019-04-27T05:18:29.280Z,83.79
2019-04-27T05:19:29.263Z,83.59
2019-04-27T05:20:29.457Z,83.48
2019-04-27T05:21:29.448Z,83.38
2019-04-27T05:22:29.622Z,82.97
2019-04-27T05:23:28.771Z,83.18
2019-04-27T05:24:29.239Z,82.87
2019-04-27T05:25:28.761Z,82.87
2019-04-27T05:26:29.511Z,82.77
2019-04-27T05:27:29.026Z,82.56
2019-04-27T05:28:29.894Z,82.67
2019-04-27T05:29:29.322Z,82.56
2019-04-27T05:30:28.688Z,82.67
2019-04-27T05:31:29.375Z,82.56
2019-04-27T05:32:29.166Z,82.56
2019-04-27T05:33:28.629Z,82.46
2019-04-27T05:34:29.416Z,82.36
2019-04-27T05:35:29.778Z,82.26
2019-04-27T05:36:29.663Z,82.15
2019-04-27T05:37:31.505Z,82.26
2019-04-27T05:38:29.469Z,82.26
2019-04-27T05:39:29.967Z,82.15
2019-04-27T05:40:30.923Z,81.95
2019-04-27T05:41:31.190Z,81.65
2019-04-27T05:42:29.920Z,81.34
2019-04-27T05:43:30.181Z,81.95
2019-04-27T05:44:29.102Z,81.65
2019-04-27T05:45:29.142Z,81.65
2019-04-27T05:46:29.742Z,81.44
2019-04-27T05:47:29.325Z,81.44
2019-04-27T05:48:30.677Z,80.83
2019-04-27T05:49:29.507Z,80.83
2019-04-27T05:50:36.145Z,80.93
2019-04-27T05:51:36.619Z,81.34
2019-04-27T05:52:29.626Z,81.24
2019-04-27T05:53:29.107Z,81.44
2019-04-27T05:54:29.414Z,81.20
2019-04-27T05:55:29.203Z,81.10
2019-04-27T05:56:28.963Z,80.38
2019-04-27T05:57:31.238Z,80.79
2019-04-27T05:58:29.006Z,81.10
2019-04-27T05:59:29.663Z,79.97
2019-04-27T06:00:29.324Z,80.38
2019-04-27T06:01:29.563Z,80.83
2019-04-27T06:02:29.998Z,80.58
2019-04-27T06:03:29.593Z,80.73
2019-04-27T06:04:29.080Z,81.30
2019-04-27T06:05:29.258Z,80.58
2019-04-27T06:06:29.547Z,80.96
2019-04-27T06:07:29.646Z,79.83
2019-04-27T06:08:29.530Z,80.10
2019-04-27T06:09:28.992Z,80.07
2019-04-27T06:10:29.554Z,79.86
2019-04-27T06:11:28.648Z,78.57
2019-04-27T06:12:29.711Z,80.07
2019-04-27T06:13:30.738Z,78.98
2019-04-27T06:14:29.189Z,79.43
2019-04-27T06:15:28.408Z,79.52
2019-04-27T06:16:29.397Z,79.73
2019-04-27T06:17:29.652Z,79.28
2019-04-27T06:18:29.191Z,80.20
2019-04-27T06:19:29.153Z,80.07
2019-04-27T06:20:28.582Z,79.52
2019-04-27T06:21:29.428Z,78.80
2019-04-27T06:22:29.264Z,78.70
2019-04-27T06:23:28.997Z,78.39
2019-04-27T06:24:29.602Z,79.82
2019-04-27T06:25:30.367Z,78.39
2019-04-27T06:26:29.899Z,78.50
2019-04-27T06:27:30.705Z,78.09
2019-04-27T06:28:29.007Z,78.30
2019-04-27T06:29:29.233Z,77.75
2019-04-27T06:30:29.252Z,77.85
2019-04-27T06:31:29.688Z,78.36
2019-04-27T06:32:29.369Z,77.03
2019-04-27T06:33:33.874Z,77.44
2019-04-27T06:34:30.882Z,77.14
2019-04-27T06:35:28.803Z,77.34
2019-04-27T06:36:28.755Z,77.71
2019-04-27T06:37:29.475Z,76.73
2019-04-27T06:38:29.222Z,76.90
2019-04-27T06:39:27.521Z,76.62
2019-04-27T06:40:29.075Z,76.32
2019-04-27T06:41:29.260Z,77.14
2019-04-27T06:42:29.418Z,76.79
2019-04-27T06:43:29.266Z,76.39
2019-04-27T06:44:29.364Z,76.39
2019-04-27T06:45:28.554Z,75.57
2019-04-27T06:46:28.807Z,75.98
2019-04-27T06:47:29.317Z,77.00
2019-04-27T06:48:29.506Z,76.59
2019-04-27T06:49:29.511Z,76.96
2019-04-27T06:50:27.406Z,75.74
2019-04-27T06:51:28.675Z,76.42
2019-04-27T06:52:29.184Z,74.15
2019-04-27T06:53:29.058Z,75.23
2019-04-27T06:54:28.901Z,74.28
2019-04-27T06:55:28.991Z,72.75
2019-04-27T06:56:28.722Z,72.65
2019-04-27T06:57:29.119Z,72.25
2019-04-27T06:58:29.086Z,73.13
2019-04-27T06:59:28.855Z,73.39
2019-04-27T07:00:28.930Z,71.57
2019-04-27T07:01:27.300Z,70.55
2019-04-27T07:02:29.027Z,70.83
2019-04-27T07:03:28.962Z,69.13
2019-04-27T07:04:27.259Z,70.25
2019-04-27T07:05:28.894Z,70.25
2019-04-27T07:06:28.571Z,70.11
2019-04-27T07:07:29.279Z,69.91
2019-04-27T07:08:28.655Z,69.10
2019-04-27T07:09:29.519Z,69.20
2019-04-27T07:10:28.597Z,68.70
2019-04-27T07:11:27.186Z,68.39
2019-04-27T07:12:28.728Z,68.39
2019-04-27T07:13:29.006Z,68.79
2019-04-27T07:14:27.160Z,68.70
2019-04-27T07:15:28.664Z,68.08
2019-04-27T07:16:29.396Z,67.78
2019-04-27T07:17:28.992Z,67.14
2019-04-27T07:18:28.584Z,67.95
2019-04-27T07:19:28.594Z,68.56
2019-04-27T07:20:28.737Z,68.35
2019-04-27T07:21:28.614Z,68.59
2019-04-27T07:22:27.069Z,68.90
2019-04-27T07:23:29.110Z,70.52
2019-04-27T07:24:27.053Z,68.12
2019-04-27T07:25:28.812Z,68.52
2019-04-27T07:26:27.039Z,67.91
2019-04-27T07:27:29.066Z,67.81
2019-04-27T07:28:28.563Z,68.42
2019-04-27T07:29:26.997Z,67.71
2019-04-27T07:30:28.726Z,68.49
2019-04-27T07:31:26.976Z,66.77
2019-04-27T07:32:26.964Z,67.17
2019-04-27T07:33:26.984Z,66.83
2019-04-27T07:34:28.653Z,65.39
2019-04-27T07:35:29.478Z,65.69
2019-04-27T07:36:28.835Z,66.70
2019-04-27T07:37:29.263Z,65.89
2019-04-27T07:38:26.943Z,65.79
2019-04-27T07:39:26.915Z,65.48
2019-04-27T07:40:30.164Z,66.19
2019-04-27T07:41:26.877Z,66.30
2019-04-27T07:42:29.589Z,66.74
2019-04-27T07:43:29.300Z,66.33
2019-04-27T07:44:29.273Z,66.36
2019-04-27T07:45:26.828Z,66.26
2019-04-27T07:46:29.836Z,66.36
2019-04-27T07:47:26.830Z,67.17
2019-04-27T07:48:28.464Z,66.80
2019-04-27T07:49:29.080Z,66.80
2019-04-27T07:50:26.811Z,67.61
2019-04-27T07:51:33.537Z,67.71
2019-04-27T07:52:28.692Z,68.52
2019-04-27T07:53:29.072Z,68.01
2019-04-27T07:54:28.432Z,67.30
2019-04-27T07:55:26.723Z,67.10
2019-04-27T07:56:26.704Z,67.61
2019-04-27T07:57:26.694Z,67.98
2019-04-27T07:58:26.690Z,68.39
2019-04-27T07:59:26.722Z,66.26
2019-04-27T08:00:26.662Z,67.68
2019-04-27T08:01:29.250Z,67.65
2019-04-27T08:02:26.643Z,66.94
2019-04-27T08:03:26.640Z,66.80
2019-04-27T08:04:26.651Z,65.72
2019-04-27T08:05:26.611Z,65.89
2019-04-27T08:06:28.800Z,66.70
2019-04-27T08:07:26.590Z,66.50
2019-04-27T08:08:28.492Z,65.89
2019-04-27T08:09:26.598Z,66.40
2019-04-27T08:10:26.557Z,66.60
2019-04-27T08:11:26.547Z,66.37
2019-04-27T08:12:26.536Z,66.80
2019-04-27T08:13:26.536Z,66.40
2019-04-27T08:14:26.553Z,66.80
2019-04-27T08:15:26.512Z,67.89
2019-04-27T08:16:26.503Z,67.45
2019-04-27T08:17:26.485Z,67.76
2019-04-27T08:18:26.474Z,66.44
2019-04-27T08:19:26.490Z,65.62
2019-04-27T08:20:26.457Z,67.08
2019-04-27T08:21:28.749Z,65.73
2019-04-27T08:22:26.433Z,65.73
2019-04-27T08:23:26.421Z,65.90
2019-04-27T08:24:26.439Z,65.50
2019-04-27T08:25:26.401Z,64.79
2019-04-27T08:26:26.401Z,64.38
2019-04-27T08:27:27.311Z,65.29
2019-04-27T08:28:26.380Z,64.79
2019-04-27T08:29:26.386Z,64.48
2019-04-27T08:30:29.455Z,64.28
2019-04-27T08:31:26.339Z,63.44
2019-04-27T08:32:26.327Z,63.04
2019-04-27T08:33:26.317Z,62.93
2019-04-27T08:34:26.337Z,63.47
2019-04-27T08:35:26.360Z,64.79
2019-04-27T08:36:26.285Z,63.07
2019-04-27T08:37:26.276Z,64.38
2019-04-27T08:38:26.265Z,62.84
2019-04-27T08:39:26.769Z,63.04
2019-04-27T08:40:26.423Z,63.54
2019-04-27T08:41:26.232Z,63.44
2019-04-27T08:42:26.222Z,63.75
2019-04-27T08:43:26.212Z,65.06
2019-04-27T08:44:26.202Z,64.32
2019-04-27T08:45:26.212Z,63.81
2019-04-27T08:46:28.446Z,62.30
2019-04-27T08:47:26.169Z,62.60
2019-04-27T08:48:36.042Z,62.60
2019-04-27T08:49:27.148Z,63.04
2019-04-27T08:50:26.168Z,63.31
2019-04-27T08:51:26.918Z,61.59
2019-04-27T08:52:26.119Z,63.08
2019-04-27T08:53:26.128Z,61.76
2019-04-27T08:54:26.892Z,61.96
2019-04-27T08:55:26.127Z,61.16
2019-04-27T08:56:26.076Z,61.56
2019-04-27T08:57:26.066Z,61.63
2019-04-27T08:58:26.065Z,61.33
2019-04-27T08:59:26.774Z,61.43
2019-04-27T09:00:26.062Z,61.05
2019-04-27T09:01:26.063Z,62.23
2019-04-27T09:02:38.847Z,63.71
2019-04-27T09:03:27.003Z,63.31
2019-04-27T09:04:25.992Z,64.02
2019-04-27T09:05:26.015Z,63.01
2019-04-27T09:06:25.972Z,62.50
2019-04-27T09:07:25.961Z,62.50
2019-04-27T09:08:25.952Z,62.70
2019-04-27T09:09:25.941Z,62.47
2019-04-27T09:10:26.770Z,61.69
2019-04-27T09:11:25.922Z,62.05
2019-04-27T09:12:25.907Z,63.17
2019-04-27T09:13:25.900Z,63.37
2019-04-27T09:14:25.887Z,63.78
2019-04-27T09:15:25.903Z,63.98
2019-04-27T09:16:25.866Z,63.34
2019-04-27T09:17:25.858Z,62.63
2019-04-27T09:18:25.846Z,62.46
2019-04-27T09:19:25.835Z,63.54
2019-04-27T09:20:28.592Z,62.81
2019-04-27T09:21:25.816Z,62.73
2019-04-27T09:22:25.804Z,62.76
2019-04-27T09:23:28.623Z,63.57
2019-04-27T09:24:25.896Z,64.48
2019-04-27T09:25:25.774Z,64.48
2019-04-27T09:26:25.794Z,63.67
2019-04-27T09:27:25.752Z,63.37
2019-04-27T09:28:25.741Z,63.78
2019-04-27T09:29:25.733Z,63.54
2019-04-27T09:30:26.912Z,63.92
2019-04-27T09:31:26.068Z,64.29
2019-04-27T09:32:25.699Z,62.16
2019-04-27T09:33:25.693Z,61.29
2019-04-27T09:34:26.077Z,62.10
2019-04-27T09:35:26.442Z,61.76
2019-04-27T09:36:26.082Z,62.57
2019-04-27T09:37:27.306Z,61.13
2019-04-27T09:38:26.431Z,60.55
2019-04-27T09:39:26.478Z,61.76
2019-04-27T09:40:26.780Z,61.99
2019-04-27T09:41:26.169Z,62.84
2019-04-27T09:42:26.826Z,62.70
2019-04-27T09:43:26.440Z,63.78
2019-04-27T09:44:26.667Z,62.67
2019-04-27T09:45:27.056Z,61.73
2019-04-27T09:46:25.986Z,60.65
2019-04-27T09:47:26.684Z,60.96
2019-04-27T09:48:26.081Z,60.96
2019-04-27T09:49:26.418Z,61.76
2019-04-27T09:50:27.939Z,61.63
2019-04-27T09:51:25.676Z,60.75
2019-04-27T09:52:26.965Z,61.46
2019-04-27T09:53:27.040Z,61.69
2019-04-27T09:54:27.109Z,62.19
2019-04-27T09:55:26.365Z,62.60
2019-04-27T09:56:26.239Z,62.37
2019-04-27T09:57:25.948Z,62.14
2019-04-27T09:58:25.796Z,62.21
2019-04-27T09:59:26.575Z,61.60
2019-04-27T10:00:25.411Z,61.51
2019-04-27T10:01:26.507Z,59.61
2019-04-27T10:02:26.850Z,61.43
2019-04-27T10:03:26.663Z,61.83
2019-04-27T10:04:26.362Z,60.32
2019-04-27T10:05:26.368Z,61.53
2019-04-27T10:06:29.766Z,60.65
2019-04-27T10:07:26.852Z,61.66
2019-04-27T10:08:26.148Z,59.74
2019-04-27T10:09:26.335Z,60.25
2019-04-27T10:10:26.725Z,59.54
2019-04-27T10:11:26.488Z,60.65
2019-04-27T10:12:26.213Z,59.03
2019-04-27T10:13:25.650Z,58.96
2019-04-27T10:14:26.514Z,59.34
2019-04-27T10:15:26.686Z,59.44
2019-04-27T10:16:25.705Z,59.54
2019-04-27T10:17:26.071Z,60.58
2019-04-27T10:18:26.589Z,60.98
2019-04-27T10:19:31.133Z,61.29
2019-04-27T10:20:26.280Z,60.78
2019-04-27T10:21:26.422Z,60.45
2019-04-27T10:22:39.864Z,59.84
2019-04-27T10:23:26.168Z,59.84
2019-04-27T10:24:25.743Z,59.94
2019-04-27T10:25:25.191Z,60.62
2019-04-27T10:26:26.017Z,59.41
2019-04-27T10:27:25.945Z,59.81
2019-04-27T10:28:25.117Z,58.40
2019-04-27T10:29:26.716Z,59.11
2019-04-27T10:30:25.772Z,58.70
2019-04-27T10:31:25.136Z,58.98
2019-04-27T10:32:26.098Z,58.54
2019-04-27T10:33:25.645Z,56.81
2019-04-27T10:34:25.962Z,57.25
2019-04-27T10:35:26.052Z,55.41
2019-04-27T10:36:26.829Z,56.29
2019-04-27T10:37:25.042Z,53.92
2019-04-27T10:38:25.896Z,53.83
2019-04-27T10:39:25.721Z,54.80
2019-04-27T10:40:26.379Z,53.47
2019-04-27T10:41:25.941Z,51.41
2019-04-27T10:42:25.318Z,54.58
2019-04-27T10:43:25.816Z,52.17
2019-04-27T10:44:26.571Z,51.79
2019-04-27T10:45:24.936Z,53.27
2019-04-27T10:46:25.811Z,52.22
2019-04-27T10:47:26.026Z,51.64
2019-04-27T10:48:26.502Z,51.86
2019-04-27T10:49:24.895Z,50.96
2019-04-27T10:50:26.529Z,51.97
2019-04-27T10:51:26.126Z,51.34
2019-04-27T10:52:24.894Z,53.27
2019-04-27T10:53:26.758Z,52.67
2019-04-27T10:54:24.872Z,53.80
2019-04-27T10:55:26.184Z,54.43
2019-04-27T10:56:25.515Z,55.62
2019-04-27T10:57:25.791Z,55.74
2019-04-27T10:58:25.430Z,55.26
2019-04-27T10:59:24.803Z,55.77
2019-04-27T11:00:25.664Z,55.39
2019-04-27T11:01:25.769Z,56.70
2019-04-27T11:02:24.823Z,57.84
2019-04-27T11:03:25.587Z,58.22
2019-04-27T11:04:26.047Z,57.43
2019-04-27T11:05:25.683Z,57.23
2019-04-27T11:06:26.094Z,57.23
2019-04-27T11:07:25.981Z,57.74
2019-04-27T11:08:24.699Z,57.14
2019-04-27T11:09:25.725Z,57.61
2019-04-27T11:10:25.989Z,56.98
2019-04-27T11:11:25.894Z,57.18
2019-04-27T11:12:24.678Z,55.57
2019-04-27T11:13:25.748Z,55.90
2019-04-27T11:14:26.174Z,56.10
2019-04-27T11:15:26.388Z,57.23
2019-04-27T11:16:24.627Z,57.10
2019-04-27T11:17:26.587Z,56.90
2019-04-27T11:18:25.795Z,56.10
2019-04-27T11:19:26.651Z,57.34
2019-04-27T11:20:27.572Z,57.81
2019-04-27T11:21:26.144Z,58.01
2019-04-27T11:22:26.061Z,57.68
2019-04-27T11:23:26.074Z,56.98
2019-04-27T11:24:24.523Z,56.77
2019-04-27T11:25:26.242Z,55.77
2019-04-27T11:26:26.215Z,55.87
2019-04-27T11:27:24.522Z,55.74
2019-04-27T11:28:25.830Z,55.06
2019-04-27T11:29:25.693Z,55.24
2019-04-27T11:30:24.550Z,55.24
2019-04-27T11:31:26.067Z,55.87
2019-04-27T11:32:24.466Z,56.65
2019-04-27T11:33:26.239Z,56.32
2019-04-27T11:34:24.487Z,56.72
2019-04-27T11:35:25.760Z,55.71
2019-04-27T11:36:25.579Z,56.22
2019-04-27T11:37:24.572Z,56.04
2019-04-27T11:38:24.381Z,56.62
2019-04-27T11:39:25.948Z,55.91
2019-04-27T11:40:24.386Z,56.42
2019-04-27T11:41:26.121Z,55.82
2019-04-27T11:42:24.337Z,55.31
2019-04-27T11:43:26.073Z,55.57
2019-04-27T11:44:25.760Z,56.60
2019-04-27T11:45:24.440Z,57.10
2019-04-27T11:46:24.478Z,56.81
2019-04-27T11:47:24.283Z,57.71
2019-04-27T11:48:26.682Z,57.10
2019-04-27T11:49:25.766Z,55.72
2019-04-27T11:50:25.621Z,53.90
2019-04-27T11:51:24.250Z,52.01
2019-04-27T11:52:24.231Z,52.79
2019-04-27T11:53:26.031Z,52.59
2019-04-27T11:54:25.525Z,51.38
2019-04-27T11:55:24.198Z,52.51
2019-04-27T11:56:24.206Z,54.91
2019-04-27T11:57:24.176Z,56.02
2019-04-27T11:58:24.196Z,56.73
2019-04-27T11:59:24.157Z,55.09
2019-04-27T12:00:24.718Z,51.98
2019-04-27T12:01:24.138Z,44.23
2019-04-27T12:02:25.761Z,44.64
2019-04-27T12:03:25.625Z,44.54
2019-04-27T12:04:24.097Z,44.35
2019-04-27T12:05:25.969Z,44.94
2019-04-27T12:06:25.745Z,44.76
2019-04-27T12:07:24.073Z,45.87
2019-04-27T12:08:24.084Z,46.36
2019-04-27T12:09:24.045Z,46.15
2019-04-27T12:10:24.034Z,45.34
2019-04-27T12:11:24.023Z,44.96
2019-04-27T12:12:24.022Z,45.16
2019-04-27T12:13:25.841Z,45.77
2019-04-27T12:14:24.001Z,46.17
2019-04-27T12:15:23.991Z,45.67
2019-04-27T12:16:24.021Z,46.17
2019-04-27T12:17:25.985Z,47.08
2019-04-27T12:18:24.720Z,45.57
2019-04-27T12:19:26.687Z,45.69
2019-04-27T12:20:25.635Z,45.89
2019-04-27T12:21:23.919Z,45.89
2019-04-27T12:22:23.909Z,46.60
2019-04-27T12:23:35.085Z,47.08
2019-04-27T12:24:26.560Z,45.99
2019-04-27T12:25:24.717Z,46.40
2019-04-27T12:26:25.939Z,46.20
2019-04-27T12:27:25.623Z,46.20
2019-04-27T12:28:25.602Z,46.58
2019-04-27T12:29:23.835Z,45.77
2019-04-27T12:30:23.831Z,46.37
2019-04-27T12:31:25.689Z,47.69
2019-04-27T12:32:25.623Z,48.07
2019-04-27T12:33:25.576Z,47.64
2019-04-27T12:34:25.596Z,46.64
2019-04-27T12:35:25.560Z,47.54
2019-04-27T12:36:23.762Z,46.43
2019-04-27T12:37:24.344Z,47.62
2019-04-27T12:38:23.781Z,47.04
2019-04-27T12:39:23.731Z,46.94
2019-04-27T12:40:23.720Z,46.94
2019-04-27T12:41:23.723Z,47.92
2019-04-27T12:42:23.707Z,47.32
2019-04-27T12:43:24.349Z,48.05
2019-04-27T12:44:26.049Z,46.94
2019-04-27T12:45:23.681Z,47.12
2019-04-27T12:46:24.767Z,46.92
2019-04-27T12:47:23.679Z,47.62
2019-04-27T12:48:23.657Z,47.64
2019-04-27T12:49:23.655Z,48.43
2019-04-27T12:50:25.971Z,47.12
2019-04-27T12:51:23.615Z,45.20
2019-04-27T12:52:23.604Z,43.69